ADDS METAR Data INFO
IDs: Format: Raw Decoded Include TAF

Data at: 1537 UTC 25 Feb 2018

KINF 251515Z AUTO 18009KT 10SM OVC085 25/20 A3020 RMK AO2
KINF 251455Z AUTO 19008KT 10SM BKN085 23/20 A3020 RMK AO2
KINF 251435Z AUTO 17007KT 10SM OVC085 23/21 A3020 RMK AO2
KINF 251415Z AUTO 18008KT 10SM OVC085 23/21 A3020 RMK AO2
KINF 251355Z AUTO 18005KT 10SM OVC085 22/21 A3020 RMK AO2
KINF 251335Z AUTO 17005KT 10SM OVC085 21/21 A3019 RMK AO2
KINF 251315Z AUTO 17004KT 10SM OVC085 21/20 A3019 RMK AO2
KINF 251255Z AUTO 17003KT 10SM SCT060 OVC085 20/20 A3019 RMK AO2
KINF 251235Z AUTO 00000KT 10SM BKN060 OVC085 20/20 A3018 RMK AO2
KINF 251215Z AUTO 00000KT 10SM BKN060 OVC085 20/20 A3018 RMK AO2
KINF 251155Z AUTO 00000KT 10SM SCT060 OVC085 19/19 A3018 RMK AO2
KINF 251135Z AUTO 00000KT 10SM OVC060 19/19 A3018 RMK AO2
KINF 251115Z AUTO 00000KT 10SM OVC060 19/19 A3017 RMK AO2
KINF 251055Z AUTO 00000KT 10SM OVC060 19/19 A3016 RMK AO2
KINF 251035Z AUTO 00000KT 10SM BKN060 OVC075 18/18 A3016 RMK AO2
KINF 251015Z AUTO 00000KT 10SM OVC060 18/18 A3015 RMK AO2
KINF 250955Z AUTO 00000KT 10SM BKN070 18/18 A3016 RMK AO2
KINF 250855Z AUTO 00000KT 10SM SCT060 OVC080 18/18 A3015 RMK AO2
KINF 250835Z AUTO 00000KT 10SM SCT080 OVC085 18/18 A3015 RMK AO2
KINF 250815Z AUTO 00000KT 10SM SCT080 OVC090 17/17 A3016 RMK AO2
KINF 250755Z AUTO 00000KT 10SM BKN090 17/17 A3016 RMK AO2
KINF 250735Z AUTO 00000KT 7SM SCT048 SCT090 17/17 A3016 RMK AO2
KINF 250715Z AUTO 00000KT 10SM SCT045 SCT090 17/17 A3017 RMK AO2
KINF 250655Z AUTO 00000KT 10SM SCT040 BKN046 BKN090 17/17 A3018 RMK AO2
KINF 250635Z AUTO 00000KT 10SM SCT038 SCT090 17/17 A3018 RMK AO2
KINF 250615Z AUTO 00000KT 10SM SCT090 17/17 A3019 RMK AO2
KINF 250555Z AUTO 00000KT 10SM SCT090 18/18 A3019 RMK AO2
KINF 250535Z AUTO 00000KT 10SM CLR 18/18 A3019 RMK AO2
KINF 250515Z AUTO 00000KT 10SM CLR 18/18 A3019 RMK AO2
KINF 250455Z AUTO 00000KT 10SM SCT085 18/18 A3019 RMK AO2
KINF 250435Z AUTO 00000KT 10SM CLR 18/18 A3018 RMK AO2
KINF 250415Z AUTO 00000KT 10SM SCT075 19/19 A3018 RMK AO2
KINF 250355Z AUTO 00000KT 10SM SCT075 20/20 A3018 RMK AO2
KINF 250335Z AUTO 00000KT 10SM CLR 20/20 A3017 RMK AO2
KINF 250315Z AUTO 00000KT 10SM SCT036 SCT048 BKN080 21/20 A3017 RMK AO2
KINF 250255Z AUTO 00000KT 10SM SCT036 BKN060 OVC070 21/20 A3016 RMK AO2
KINF 250235Z AUTO 00000KT 10SM SCT036 BKN042 OVC065 22/20 A3016 RMK AO2
KINF 250215Z AUTO 00000KT 10SM BKN042 BKN050 BKN060 21/20 A3016 RMK AO2
KINF 250155Z AUTO 09003KT 10SM SCT060 SCT090 21/20 A3015 RMK AO2
KINF 250135Z AUTO 00000KT 10SM BKN090 21/20 A3014 RMK AO2
KINF 250115Z AUTO 00000KT 10SM SCT050 OVC090 22/20 A3014 RMK AO2
KINF 250055Z AUTO 00000KT 10SM SCT055 BKN090 22/20 A3014 RMK AO2
KINF 250035Z AUTO 00000KT 10SM SCT055 SCT100 22/20 A3014 RMK AO2
KINF 250015Z AUTO 00000KT 10SM SCT100 23/20 A3013 RMK AO2
KINF 242355Z AUTO 00000KT 10SM SCT060 23/20 A3013 RMK AO2
KINF 242335Z AUTO 00000KT 10SM BKN050 25/20 A3013 RMK AO2
KINF 242315Z AUTO 26003KT 10SM BKN050 25/20 A3013 RMK AO2
KINF 242255Z AUTO 00000KT 10SM BKN050 BKN100 26/20 A3013 RMK AO2
KINF 242235Z AUTO 26004KT 10SM SCT050 SCT100 27/20 A3012 RMK AO2
KINF 242215Z AUTO 00000KT 10SM SCT050 BKN090 27/18 A3012 RMK AO2
KINF 242155Z AUTO 14003KT 10SM BKN050 BKN060 OVC080 27/17 A3012 RMK AO2
KINF 242135Z AUTO 15004KT 10SM BKN050 OVC100 28/18 A3013 RMK AO2
KINF 242115Z AUTO 14005KT 10SM BKN100 28/17 A3012 RMK AO2
KINF 242055Z AUTO 12006KT 10SM SCT055 SCT100 29/18 A3013 RMK AO2
KINF 242035Z AUTO 17007KT 10SM SCT055 28/17 A3013 RMK AO2
KINF 242015Z AUTO 15006KT 10SM SCT049 28/18 A3014 RMK AO2
KINF 241955Z AUTO 19003KT 10SM SCT049 SCT070 SCT095 28/17 A3014 RMK AO2
KINF 241935Z AUTO 15005KT 10SM SCT049 SCT070 BKN085 28/17 A3015 RMK AO2
KINF 241915Z AUTO 18004KT 10SM SCT047 SCT070 OVC085 28/18 A3016 RMK AO2
KINF 241855Z AUTO 13004KT 10SM SCT045 BKN085 27/18 A3017 RMK AO2
KINF 241835Z AUTO 17005KT 10SM SCT041 28/18 A3017 RMK AO2
KINF 241815Z AUTO 14003KT 10SM SCT039 SCT045 SCT055 28/18 A3019 RMK AO2
KINF 241755Z AUTO 00000KT 10SM SCT038 SCT047 BKN080 27/18 A3020 RMK AO2
KINF 241735Z AUTO 12004KT 7SM SCT038 SCT050 BKN080 26/18 A3021 RMK AO2
KINF 241715Z AUTO 13006KT 10SM SCT036 SCT050 SCT065 26/19 A3022 RMK AO2
KINF 241655Z AUTO 10007KT 7SM SCT032 SCT065 SCT070 27/19 A3023 RMK AO2
KINF 241635Z AUTO 16003KT 7SM SCT030 SCT044 BKN050 26/19 A3024 RMK AO2
KINF 241615Z AUTO 15005KT 7SM SCT028 SCT034 OVC046 26/19 A3025 RMK AO2
KINF 241555Z AUTO 17006KT 10SM SCT026 BKN031 OVC044 25/20 A3026 RMK AO2
KINF 241535Z AUTO 15005KT 7SM SCT020 BKN027 BKN041 25/20 A3025 RMK AO2
KINF 241515Z AUTO 15008KT 10SM BKN018 25/20 A3026 RMK AO2
KINF 241455Z AUTO 17007KT 7SM SCT018 BKN023 24/21 A3026 RMK AO2
KINF 241435Z AUTO 15004KT 7SM BKN022 BKN030 23/21 A3026 RMK AO2
KINF 241415Z AUTO 13005KT 7SM SCT022 22/21 A3026 RMK AO2
KINF 241355Z AUTO 12003KT 10SM CLR 21/21 A3026 RMK AO2
KINF 241335Z AUTO 00000KT 10SM CLR 20/20 A3026 RMK AO2
KINF 241315Z AUTO 00000KT 7SM SCT006 SCT010 18/18 A3026 RMK AO2
KINF 241255Z AUTO 00000KT 2 1/2SM BR OVC004 16/16 A3026 RMK AO2
KINF 241235Z AUTO 00000KT 1/2SM FG OVC004 15/15 A3026 RMK AO2
KINF 241215Z AUTO 00000KT 1 1/2SM BR BKN004 OVC008 14/14 A3026 RMK AO2
KINF 241155Z AUTO 00000KT 3SM BR SCT003 OVC008 15/15 A3025 RMK AO2
KINF 241135Z AUTO 00000KT 2 1/2SM BR BKN010 OVC015 15/15 A3025 RMK AO2 VIS 1 1/4V5
KINF 241115Z AUTO 00000KT 7SM SCT010 SCT015 SCT021 15/15 A3024 RMK AO2
KINF 241055Z AUTO 00000KT 1 1/2SM BR BKN017 14/14 A3024 RMK AO2
KINF 241035Z AUTO 00000KT 2 1/2SM BR BKN017 BKN022 15/15 A3023 RMK AO2
KINF 241015Z AUTO 00000KT 5SM BR OVC017 15/15 A3023 RMK AO2
KINF 240955Z AUTO 00000KT 7SM OVC015 15/15 A3023 RMK AO2
KINF 240935Z AUTO 00000KT 5SM BR BKN013 15/15 A3023 RMK AO2
KINF 240915Z AUTO 00000KT 10SM CLR 15/15 A3023 RMK AO2
KINF 240855Z AUTO 00000KT 2 1/2SM BR CLR 16/16 A3023 RMK AO2 VIS 1V5
KINF 240835Z AUTO 00000KT 3SM BR CLR 16/16 A3024 RMK AO2
KINF 240815Z AUTO 00000KT 1 3/4SM BR VV007 16/16 A3024 RMK AO2
KINF 240755Z AUTO 00000KT 7SM CLR 16/16 A3025 RMK AO2
KINF 240735Z AUTO 00000KT 7SM CLR 16/16 A3025 RMK AO2
KINF 240715Z AUTO 00000KT 7SM CLR 16/16 A3026 RMK AO2
KINF 240655Z AUTO 00000KT 10SM CLR 17/17 A3027 RMK AO2
KINF 240635Z AUTO 00000KT 10SM CLR 17/17 A3027 RMK AO2
KINF 240615Z AUTO 00000KT 10SM CLR 17/17 A3027 RMK AO2
KINF 240555Z AUTO 00000KT 10SM CLR 17/17 A3027 RMK AO2
KINF 240535Z AUTO 00000KT 10SM CLR 17/17 A3027 RMK AO2
KINF 240515Z AUTO 00000KT 10SM CLR 18/17 A3027 RMK AO2
KINF 240455Z AUTO 00000KT 10SM CLR 18/18 A3028 RMK AO2
KINF 240435Z AUTO 00000KT 10SM CLR 19/17 A3029 RMK AO2
KINF 240415Z AUTO 00000KT 10SM CLR 19/17 A3029 RMK AO2
KINF 240355Z AUTO 00000KT 10SM CLR 20/17 A3029 RMK AO2